Time;durP1;ratioP1;P1;durP2;ratioP2;P2;SDS_P1;SDS_P2;PMS_P1;PMS_P2;Temp;Humidity;BMP_temperature;BMP_pressure;BME280_temperature;BME280_humidity;BME280_pressure;Samples;Min_cycle;Max_cycle;Signal;HPM_P1;HPM_P2
2021/03/08 00:01:28;;;;;;;3.77;2.60;;;1.10;1.00;;;;;;5046340;28;20195;-74
2021/03/08 00:03:54;;;;;;;12.93;3.17;;;1.00;1.00;;;;;;5052728;28;20204;-74
2021/03/08 00:06:22;;;;;;;3.00;2.40;;;;;;;;;;5036197;28;20500;-74
2021/03/08 00:08:48;;;;;;;3.22;1.92;;;0.90;1.00;;;;;;5036000;28;20447;-74
2021/03/08 00:11:14;;;;;;;4.17;2.60;;;0.90;1.00;;;;;;5036396;28;20194;-74
2021/03/08 00:13:40;;;;;;;15.07;3.70;;;0.80;1.00;;;;;;5036242;28;20426;-74
2021/03/08 00:16:10;;;;;;;4.10;2.60;;;0.70;1.00;;;;;;5036301;28;20637;-73
2021/03/08 00:18:40;;;;;;;3.33;2.20;;;0.70;1.00;;;;;;5036261;28;20179;-74
2021/03/08 00:21:06;;;;;;;3.63;2.15;;;0.70;1.00;;;;;;5035953;28;20165;-74
2021/03/08 00:23:31;;;;;;;2.60;2.27;;;0.60;1.00;;;;;;5035886;28;20667;-74
2021/03/08 00:25:57;;;;;;;2.17;1.97;;;0.60;1.00;;;;;;5052078;28;20550;-74
2021/03/08 00:28:28;;;;;;;3.07;2.00;;;0.50;1.00;;;;;;5055905;28;20593;-74
2021/03/08 00:30:54;;;;;;;2.63;1.90;;;0.50;1.00;;;;;;5055596;28;20281;-74
2021/03/08 00:33:19;;;;;;;4.20;2.83;;;0.40;1.00;;;;;;5056012;28;20695;-70
2021/03/08 00:35:45;;;;;;;2.07;1.93;;;0.40;1.00;;;;;;5055490;28;20709;-70
2021/03/08 00:38:11;;;;;;;2.90;2.67;;;0.30;1.00;;;;;;5037559;28;20172;-70
2021/03/08 00:40:37;;;;;;;3.17;1.97;;;0.30;1.00;;;;;;5035606;28;20179;-70
2021/03/08 00:43:03;;;;;;;2.67;1.73;;;;;;;;;;5034290;28;20211;-70
2021/03/08 00:45:29;;;;;;;3.13;2.25;;;0.20;1.00;;;;;;5035415;28;20161;-70
2021/03/08 00:47:55;;;;;;;1.77;1.45;;;0.10;1.00;;;;;;5035906;28;20156;-74
2021/03/08 00:50:28;;;;;;;2.63;2.30;;;0.10;1.00;;;;;;5035454;28;20156;-74
2021/03/08 00:52:55;;;;;;;3.35;1.85;;;0.10;1.00;;;;;;5046535;28;20270;-74
2021/03/08 00:55:21;;;;;;;4.82;3.10;;;0.00;1.00;;;;;;5054076;28;20579;-74
2021/03/08 00:57:47;;;;;;;3.60;2.70;;;0.00;1.00;;;;;;5051657;28;20182;-75
2021/03/08 01:00:16;;;;;;;5.63;2.40;;;-0.10;1.00;;;;;;5054199;28;20180;-74
2021/03/08 01:02:41;;;;;;;3.28;2.28;;;-0.20;1.00;;;;;;5046400;28;20672;-70
2021/03/08 01:05:08;;;;;;;3.37;2.30;;;-0.20;1.00;;;;;;5036126;28;20176;-70
2021/03/08 01:07:34;;;;;;;6.13;3.65;;;-0.30;1.00;;;;;;5034988;28;20227;-70
2021/03/08 01:10:01;;;;;;;9.60;3.63;;;-0.30;1.00;;;;;;5035118;28;20153;-70
2021/03/08 01:12:27;;;;;;;2.17;1.98;;;-0.40;1.00;;;;;;5052424;28;20179;-70
2021/03/08 01:14:53;;;;;;;3.83;2.53;;;-0.50;1.00;;;;;;5054842;28;20187;-70
2021/03/08 01:17:19;;;;;;;2.70;2.50;;;;;;;;;;5074367;28;20642;-75
2021/03/08 01:19:45;;;;;;;7.50;2.85;;;-0.60;1.00;;;;;;5073805;28;20284;-74
2021/03/08 01:22:11;;;;;;;6.30;3.40;;;-0.60;1.00;;;;;;5042732;28;20184;-74
2021/03/08 01:24:37;;;;;;;10.07;4.17;;;-0.60;1.00;;;;;;5033562;28;20192;-74
2021/03/08 01:27:03;;;;;;;7.37;2.97;;;;;;;;;;5034984;28;20481;-74
2021/03/08 01:29:29;;;;;;;3.75;2.45;;;-0.60;1.00;;;;;;5034881;28;20387;-73
2021/03/08 01:31:54;;;;;;;5.93;3.00;;;-0.70;1.00;;;;;;5035178;28;20164;-70
2021/03/08 01:34:20;;;;;;;5.40;3.97;;;-0.70;1.00;;;;;;5034524;28;20731;-70
2021/03/08 01:36:46;;;;;;;2.33;1.83;;;-0.70;1.00;;;;;;5034308;28;20175;-70
2021/03/08 01:39:11;;;;;;;3.43;2.20;;;-0.80;1.00;;;;;;5034556;28;20520;-70
2021/03/08 01:41:38;;;;;;;9.83;4.47;;;;;;;;;;5034498;28;20239;-70
2021/03/08 01:44:04;;;;;;;8.93;3.92;;;-0.80;1.00;;;;;;5034136;28;20545;-70
2021/03/08 01:46:30;;;;;;;6.97;4.10;;;-0.90;1.00;;;;;;5034342;28;20161;-70
2021/03/08 01:48:56;;;;;;;12.87;5.10;;;-1.00;1.00;;;;;;5034661;28;20168;-74
2021/03/08 01:51:34;;;;;;;8.23;4.43;;;-1.00;1.00;;;;;;5034311;28;20798;-74
2021/03/08 01:54:51;;;;;;;9.20;4.68;;;-1.10;1.00;;;;;;5034608;28;20274;-74
2021/03/08 01:57:18;;;;;;;13.95;5.93;;;;;;;;;;5034036;28;20203;-74
2021/03/08 01:59:44;;;;;;;10.80;5.93;;;;;;;;;;5036207;28;20659;-74
2021/03/08 02:02:10;;;;;;;7.00;4.85;;;-1.10;1.00;;;;;;5043425;28;20179;-70
2021/03/08 02:04:36;;;;;;;9.57;5.37;;;-1.20;1.00;;;;;;5035594;28;20691;-70
2021/03/08 02:07:01;;;;;;;3.60;2.40;;;-1.20;1.00;;;;;;5037204;28;20411;-70
2021/03/08 02:09:27;;;;;;;4.50;3.40;;;-1.20;1.00;;;;;;5033908;28;20391;-70
2021/03/08 02:12:09;;;;;;;6.50;4.60;;;-1.20;1.00;;;;;;5033913;28;20170;-70
2021/03/08 02:15:07;;;;;;;10.57;5.13;;;-1.30;1.00;;;;;;5033792;28;20195;-70
2021/03/08 02:17:48;;;;;;;7.90;5.32;;;-1.30;1.00;;;;;;5040569;28;20203;-74
2021/03/08 02:20:18;;;;;;;9.15;4.32;;;;;;;;;;5056900;28;20247;-74
2021/03/08 02:23:00;;;;;;;8.98;4.63;;;-1.40;1.00;;;;;;5032382;28;20691;-74
2021/03/08 02:25:53;;;;;;;7.25;4.10;;;-1.40;1.00;;;;;;5033959;28;20243;-74
2021/03/08 02:28:57;;;;;;;10.43;4.95;;;-1.40;1.00;;;;;;5032648;28;20175;-74
2021/03/08 02:31:31;;;;;;;10.25;5.00;;;-1.50;1.00;;;;;;5033919;28;20164;-74
2021/03/08 02:34:05;;;;;;;8.60;4.85;;;-1.50;1.00;;;;;;5037646;28;20160;-74
2021/03/08 02:36:35;;;;;;;7.15;5.03;;;-1.50;1.00;;;;;;5032955;28;20172;-74
2021/03/08 02:39:09;;;;;;;7.88;4.93;;;-1.50;1.00;;;;;;5031844;28;20172;-74
2021/03/08 02:41:36;;;;;;;7.40;4.85;;;-1.60;1.00;;;;;;5032987;28;20164;-74
2021/03/08 02:44:09;;;;;;;6.80;4.88;;;-1.60;1.00;;;;;;5032900;28;20188;-74
2021/03/08 02:46:50;;;;;;;7.85;5.18;;;-1.70;1.00;;;;;;5032763;28;20176;-74
2021/03/08 02:49:20;;;;;;;8.02;5.30;;;-1.70;1.00;;;;;;5032899;28;20248;-70
2021/03/08 02:51:53;;;;;;;8.65;5.00;;;-1.60;1.00;;;;;;5034387;28;20518;-70
2021/03/08 02:54:21;;;;;;;11.02;5.45;;;-1.70;1.00;;;;;;5044310;28;20629;-70
2021/03/08 02:56:48;;;;;;;8.68;5.45;;;-1.70;1.00;;;;;;5052413;28;20163;-70
2021/03/08 02:59:16;;;;;;;11.38;5.72;;;-1.70;1.00;;;;;;5052358;28;20234;-70
2021/03/08 03:01:43;;;;;;;9.93;5.65;;;-1.70;1.00;;;;;;5050393;28;20294;-70
2021/03/08 03:04:11;;;;;;;8.00;5.10;;;-1.70;1.00;;;;;;5039370;28;20286;-70
2021/03/08 03:06:39;;;;;;;10.20;5.65;;;-1.70;1.00;;;;;;5032013;28;20153;-70
2021/03/08 03:09:07;;;;;;;8.38;5.30;;;-1.70;1.00;;;;;;5031462;28;20544;-70
2021/03/08 03:11:35;;;;;;;12.20;5.65;;;-1.80;1.00;;;;;;5032011;28;20168;-70
2021/03/08 03:14:03;;;;;;;7.07;4.90;;;-1.80;1.00;;;;;;5032747;28;20498;-70
2021/03/08 03:16:30;;;;;;;9.52;5.60;;;-1.80;1.00;;;;;;5052189;28;20164;-70
2021/03/08 03:18:57;;;;;;;9.30;5.60;;;-1.80;1.00;;;;;;5046838;28;20172;-74
2021/03/08 03:21:31;;;;;;;9.40;5.22;;;-1.80;1.00;;;;;;5032339;28;20196;-74
2021/03/08 03:23:58;;;;;;;12.50;5.35;;;-1.80;1.00;;;;;;5032408;28;20216;-74
2021/03/08 03:26:26;;;;;;;8.63;5.30;;;-1.90;1.00;;;;;;5032409;28;20152;-74
2021/03/08 03:28:59;;;;;;;10.85;6.03;;;-1.90;1.00;;;;;;5032488;28;20164;-74
2021/03/08 03:31:26;;;;;;;9.70;5.38;;;-2.00;1.00;;;;;;5032456;28;20472;-74
2021/03/08 03:36:36;;;;;;;9.68;5.63;;;-1.90;1.00;;;;;;5111205;27;20565;-70
2021/03/08 03:39:05;;;;;;;8.85;5.30;;;-2.10;1.00;;;;;;5111403;28;20162;-70
2021/03/08 03:41:33;;;;;;;8.13;5.50;;;-2.10;1.00;;;;;;5098805;28;20166;-70
2021/03/08 03:43:59;;;;;;;10.45;5.78;;;-2.10;1.00;;;;;;5091114;28;20517;-70
2021/03/08 03:46:25;;;;;;;13.18;6.60;;;-2.10;1.00;;;;;;5090771;28;20193;-70
2021/03/08 03:48:51;;;;;;;11.13;5.68;;;-2.20;1.00;;;;;;5081240;28;20178;-74
2021/03/08 03:51:28;;;;;;;16.80;6.50;;;-2.20;1.00;;;;;;5070909;28;20163;-75
2021/03/08 03:53:54;;;;;;;9.82;5.75;;;-2.40;1.00;;;;;;5090251;28;20617;-74
2021/03/08 03:56:24;;;;;;;14.33;6.50;;;-2.40;1.00;;;;;;5091115;28;20162;-74
2021/03/08 03:59:17;;;;;;;9.98;6.15;;;-2.30;1.00;;;;;;5089678;28;20587;-74
2021/03/08 04:02:17;;;;;;;13.00;6.45;;;-2.40;1.00;;;;;;5090862;28;20234;-75
2021/03/08 04:04:53;;;;;;;13.43;6.22;;;-2.40;1.00;;;;;;5076551;28;20234;-75
2021/03/08 04:07:20;;;;;;;6.68;4.47;;;-2.40;1.00;;;;;;5090776;28;20209;-75
2021/03/08 04:09:49;;;;;;;12.23;6.15;;;-2.40;1.00;;;;;;5090698;28;20163;-75
2021/03/08 04:12:22;;;;;;;14.40;6.90;;;-2.50;1.00;;;;;;5090636;28;20606;-75
2021/03/08 04:14:53;;;;;;;11.23;6.30;;;-2.40;1.00;;;;;;5090330;28;20178;-74
2021/03/08 04:17:19;;;;;;;17.70;6.45;;;-2.40;1.00;;;;;;5089176;28;20189;-75
2021/03/08 04:19:47;;;;;;;10.55;5.97;;;-2.40;1.00;;;;;;5070272;28;20578;-75
2021/03/08 04:22:15;;;;;;;10.02;5.55;;;-2.40;1.00;;;;;;5070188;28;20190;-75
2021/03/08 04:24:42;;;;;;;12.77;6.40;;;-2.40;1.00;;;;;;5069998;28;20183;-75
2021/03/08 04:27:11;;;;;;;11.35;6.05;;;-2.30;1.00;;;;;;5070276;28;20205;-75
2021/03/08 04:29:48;;;;;;;10.60;6.53;;;-2.30;1.00;;;;;;5070131;28;20187;-75
2021/03/08 04:32:18;;;;;;;9.95;6.38;;;-2.40;1.00;;;;;;5069933;28;20156;-75
2021/03/08 04:34:44;;;;;;;10.63;5.95;;;-2.40;1.00;;;;;;5069983;28;20202;-75
2021/03/08 04:37:14;;;;;;;15.00;6.80;;;-2.40;1.00;;;;;;5069792;28;20156;-75
2021/03/08 04:39:47;;;;;;;11.35;6.68;;;-2.50;1.00;;;;;;5073721;28;20163;-75
2021/03/08 04:42:15;;;;;;;11.05;6.70;;;-2.50;1.00;;;;;;5091445;28;20554;-75
2021/03/08 04:44:43;;;;;;;15.80;7.15;;;-2.50;1.00;;;;;;5110471;28;20181;-74
2021/03/08 04:47:10;;;;;;;14.40;6.95;;;-2.50;1.00;;;;;;5085790;28;20179;-75
2021/03/08 04:49:39;;;;;;;10.45;6.30;;;-2.50;1.00;;;;;;5056621;28;20160;-70
2021/03/08 04:52:08;;;;;;;11.23;6.70;;;-2.50;1.00;;;;;;5060426;28;20170;-70
2021/03/08 04:54:35;;;;;;;16.27;7.18;;;-2.50;1.00;;;;;;5076179;28;20166;-70
2021/03/08 04:57:03;;;;;;;12.68;6.85;;;-2.50;1.00;;;;;;5076280;28;20501;-70
2021/03/08 04:59:28;;;;;;;16.70;5.72;;;-2.60;1.00;;;;;;5076112;28;20167;-70
2021/03/08 05:01:56;;;;;;;13.30;7.13;;;-2.60;1.00;;;;;;5071862;28;20180;-70
2021/03/08 05:04:24;;;;;;;13.52;6.53;;;-2.60;1.00;;;;;;5058080;28;20282;-70
2021/03/08 05:06:51;;;;;;;13.45;7.40;;;-2.60;1.00;;;;;;5074173;28;20195;-70
2021/03/08 05:09:19;;;;;;;13.20;7.85;;;-2.60;1.00;;;;;;5075891;28;20163;-71
2021/03/08 05:11:46;;;;;;;14.00;7.05;;;-2.70;1.00;;;;;;5075843;28;20569;-70
2021/03/08 05:14:16;;;;;;;12.13;6.22;;;-2.70;1.00;;;;;;5075517;28;20151;-70
2021/03/08 05:16:47;;;;;;;11.25;6.78;;;-2.60;1.00;;;;;;5071107;28;20486;-70
2021/03/08 05:19:14;;;;;;;9.70;6.07;;;-2.70;1.00;;;;;;5059346;28;20171;-71
2021/03/08 05:21:41;;;;;;;11.77;6.72;;;-2.70;1.00;;;;;;5075433;28;20155;-70
2021/03/08 05:24:08;;;;;;;15.13;7.68;;;;;;;;;;5075555;28;20246;-70
2021/03/08 05:26:35;;;;;;;13.80;7.50;;;-2.70;1.00;;;;;;5075581;28;20151;-70
2021/03/08 05:29:02;;;;;;;15.32;6.93;;;;;;;;;;5075558;28;20158;-70
2021/03/08 05:31:37;;;;;;;12.23;6.88;;;-2.70;1.00;;;;;;5074738;28;20167;-70
2021/03/08 05:34:04;;;;;;;10.80;6.90;;;-2.80;1.00;;;;;;5075327;28;20605;-70
2021/03/08 05:36:36;;;;;;;12.23;6.90;;;-2.80;1.00;;;;;;5076114;28;20195;-70
2021/03/08 05:39:02;;;;;;;12.27;7.38;;;-2.80;1.00;;;;;;5080743;28;20220;-70
2021/03/08 05:41:29;;;;;;;13.90;7.22;;;;;;;;;;5055107;28;20172;-70
2021/03/08 05:44:01;;;;;;;13.50;6.90;;;-2.80;1.00;;;;;;5055272;28;20164;-70
2021/03/08 05:46:53;;;;;;;11.07;6.15;;;-2.80;1.00;;;;;;5071349;28;20195;-70
2021/03/08 05:49:46;;;;;;;14.45;8.23;;;-2.80;1.00;;;;;;5055367;28;20148;-71
2021/03/08 05:52:34;;;;;;;14.15;7.75;;;-2.80;1.00;;;;;;5060598;28;20186;-79
2021/03/08 05:55:06;;;;;;;14.35;7.75;;;-2.80;1.00;;;;;;5055182;28;20167;-75
2021/03/08 05:57:43;;;;;;;15.45;7.97;;;-2.80;1.00;;;;;;5054913;28;20160;-83
2021/03/08 06:00:33;;;;;;;12.30;7.40;;;-2.90;1.00;;;;;;5054814;28;20162;-75
2021/03/08 06:06:30;;;;;;;17.90;6.97;;;;;;;;;;5072316;28;20222;-84
2021/03/08 06:09:28;;;;;;;15.23;7.63;;;-2.80;1.00;;;;;;5063117;28;20205;-74
2021/03/08 06:12:08;;;;;;;16.20;7.68;;;-2.80;1.00;;;;;;5063081;28;20743;-75
2021/03/08 06:14:45;;;;;;;16.05;7.82;;;-2.80;1.00;;;;;;5054561;28;20175;-74
2021/03/08 06:17:17;;;;;;;15.43;8.02;;;-2.70;1.00;;;;;;5054842;28;20603;-75
2021/03/08 06:19:44;;;;;;;17.33;7.95;;;-2.70;1.00;;;;;;5054786;28;20164;-75
2021/03/08 06:22:12;;;;;;;14.93;7.07;;;-2.60;1.00;;;;;;5059426;28;20164;-75
2021/03/08 06:24:43;;;;;;;15.43;8.10;;;-2.60;1.00;;;;;;5074601;28;20195;-75
2021/03/08 06:27:12;;;;;;;15.18;7.65;;;-2.60;1.00;;;;;;5074697;28;20155;-75
2021/03/08 06:29:39;;;;;;;13.77;7.35;;;-2.50;1.00;;;;;;5074514;28;20147;-75
2021/03/08 06:32:07;;;;;;;13.05;7.82;;;-2.40;1.00;;;;;;5074558;28;20625;-75
2021/03/08 06:34:34;;;;;;;20.00;9.07;;;-2.40;1.00;;;;;;5069632;28;20187;-75
2021/03/08 06:37:06;;;;;;;15.15;7.65;;;-2.30;1.00;;;;;;5083416;28;20182;-75
2021/03/08 06:42:54;;;;;;;14.15;7.28;;;-2.20;1.00;;;;;;5094844;28;20176;-76
2021/03/08 06:45:22;;;;;;;14.68;7.30;;;-2.10;1.00;;;;;;5066803;28;20649;-75
2021/03/08 06:47:55;;;;;;;14.10;8.10;;;;;;;;;;5064197;28;20262;-75
2021/03/08 06:50:21;;;;;;;16.65;8.10;;;-1.90;1.00;;;;;;5054442;28;20238;-75
2021/03/08 06:52:48;;;;;;;18.43;8.10;;;-1.90;1.00;;;;;;5064984;28;20199;-75
2021/03/08 06:55:14;;;;;;;14.30;7.50;;;-1.80;1.00;;;;;;5083568;28;20171;-75
2021/03/08 06:57:46;;;;;;;11.10;6.50;;;-1.70;1.00;;;;;;5076218;28;20686;-76
2021/03/08 07:00:14;;;;;;;9.40;5.63;;;-1.60;1.00;;;;;;5072633;28;20410;-75
2021/03/08 07:02:44;;;;;;;16.90;7.53;;;-1.50;1.00;;;;;;5061153;28;20172;-75
2021/03/08 07:05:12;;;;;;;12.45;6.50;;;-1.40;1.00;;;;;;5054576;28;20198;-78
2021/03/08 07:07:52;;;;;;;12.52;7.43;;;-1.30;1.00;;;;;;5068425;28;20206;-75
2021/03/08 07:10:40;;;;;;;12.65;6.80;;;-1.20;1.00;;;;;;5073140;28;20225;-75
2021/03/08 07:13:10;;;;;;;10.25;6.38;;;-1.20;1.00;;;;;;5063770;28;20165;-75
2021/03/08 07:15:59;;;;;;;13.65;4.15;;;-1.00;1.00;;;;;;5061753;28;20182;-75
2021/03/08 07:18:26;;;;;;;4.00;2.85;;;-0.90;1.00;;;;;;5053777;28;20729;-75
2021/03/08 07:20:52;;;;;;;13.18;6.13;;;-0.80;1.00;;;;;;5053753;28;20521;-70
2021/03/08 07:23:25;;;;;;;15.85;7.28;;;-0.60;1.00;;;;;;5053508;28;20619;-70
2021/03/08 07:26:12;;;;;;;5.93;3.58;;;-0.50;1.00;;;;;;5059783;28;20199;-70
2021/03/08 07:28:38;;;;;;;4.00;3.05;;;-0.40;1.00;;;;;;5072077;28;20171;-70
2021/03/08 07:31:06;;;;;;;9.20;3.40;;;-0.30;1.00;;;;;;5073423;28;20150;-70
2021/03/08 07:33:31;;;;;;;8.38;3.65;;;-0.10;1.00;;;;;;5073203;28;20171;-71
2021/03/08 07:35:57;;;;;;;23.13;3.40;;;0.10;1.00;;;;;;5068429;28;20202;-71
2021/03/08 07:38:29;;;;;;;5.25;3.15;;;0.30;1.00;;;;;;5069458;28;20172;-71
2021/03/08 07:41:18;;;;;;;9.98;4.50;;;0.50;1.00;;;;;;5069819;28;20254;-70
2021/03/08 07:43:46;;;;;;;12.20;4.65;;;0.70;1.00;;;;;;5052277;28;20180;-71
2021/03/08 07:46:45;;;;;;;4.72;3.75;;;0.90;1.00;;;;;;5064177;28;20434;-70
2021/03/08 07:49:10;;;;;;;7.57;4.30;;;1.10;1.00;;;;;;4985715;28;20281;-70
2021/03/08 07:51:36;;;;;;;20.40;7.10;;;;;;;;;;4991150;28;20256;-70
2021/03/08 07:54:07;;;;;;;6.13;3.87;;;1.50;1.00;;;;;;4982182;28;20181;-71
2021/03/08 07:56:33;;;;;;;15.98;4.75;;;1.70;1.00;;;;;;4990948;28;20421;-71
2021/03/08 07:59:00;;;;;;;23.35;8.20;;;1.90;1.00;;;;;;4988722;28;20264;-71
2021/03/08 08:01:25;;;;;;;9.30;5.63;;;2.10;1.00;;;;;;4990902;28;20190;-71
2021/03/08 08:03:52;;;;;;;17.33;5.23;;;;;;;;;;4990927;28;20727;-70
2021/03/08 08:06:22;;;;;;;15.63;6.25;;;2.60;1.00;;;;;;4982657;28;20241;-75
2021/03/08 08:08:50;;;;;;;13.50;6.13;;;2.80;1.00;;;;;;4987284;28;20181;-75
2021/03/08 08:11:18;;;;;;;12.73;6.35;;;3.10;1.00;;;;;;4997420;28;20185;-76
2021/03/08 08:13:54;;;;;;;15.25;5.90;;;3.30;1.00;;;;;;5010160;28;20790;-75
2021/03/08 08:16:23;;;;;;;9.93;6.18;;;3.70;1.00;;;;;;4996527;28;20227;-75
2021/03/08 08:18:53;;;;;;;12.25;5.93;;;3.90;1.00;;;;;;4990758;28;20185;-75
2021/03/08 08:21:20;;;;;;;17.65;5.65;;;4.20;1.00;;;;;;4990625;28;20186;-75
2021/03/08 08:23:59;;;;;;;10.77;5.88;;;4.40;1.00;;;;;;4999229;28;20248;-76
2021/03/08 08:26:25;;;;;;;14.40;7.03;;;;;;;;;;5074972;28;20677;-75
2021/03/08 08:28:52;;;;;;;8.43;4.47;;;5.30;1.00;;;;;;5082059;28;20199;-77
2021/03/08 08:31:19;;;;;;;151.60;75.18;;;;;;;;;;5075983;28;20159;-76
2021/03/08 08:33:45;;;;;;;14.57;7.60;;;;;;;;;;5074397;28;20206;-76
2021/03/08 08:36:19;;;;;;;10.70;6.20;;;6.60;1.00;;;;;;5063396;28;20449;-75
2021/03/08 08:38:54;;;;;;;14.20;6.20;;;;;;;;;;5062075;28;20985;-75
2021/03/08 08:41:26;;;;;;;9.50;5.53;;;6.70;1.00;;;;;;5075462;28;20424;-75
2021/03/08 08:44:12;;;;;;;9.03;5.87;;;6.70;1.00;;;;;;5075354;28;20931;-80
2021/03/08 08:46:42;;;;;;;9.83;6.03;;;6.70;1.00;;;;;;5072869;28;20438;-75
2021/03/08 08:49:14;;;;;;;12.77;5.90;;;6.70;1.00;;;;;;5067136;28;20492;-75
2021/03/08 08:51:51;;;;;;;11.70;5.70;;;6.80;1.00;;;;;;5076745;28;20405;-75
2021/03/08 08:54:26;;;;;;;12.87;5.47;;;6.50;1.00;;;;;;5076380;28;20405;-77
2021/03/08 08:56:52;;;;;;;7.17;4.63;;;;;;;;;;5075875;28;20433;-77
2021/03/08 08:59:20;;;;;;;7.40;5.00;;;;;;;;;;5075129;28;20397;-77
2021/03/08 09:01:46;;;;;;;12.47;5.57;;;6.80;1.00;;;;;;5073240;28;20888;-77
2021/03/08 09:04:15;;;;;;;14.37;5.90;;;;;;;;;;5075427;28;20398;-78
2021/03/08 09:06:57;;;;;;;9.00;4.87;;;7.00;1.00;;;;;;5055909;28;20406;-72
2021/03/08 09:09:42;;;;;;;11.53;6.00;;;7.20;1.00;;;;;;5071222;28;20574;-72
2021/03/08 09:12:09;;;;;;;11.23;5.40;;;7.30;1.00;;;;;;5075005;28;20409;-72
2021/03/08 09:14:46;;;;;;;10.57;6.23;;;7.40;1.00;;;;;;5073381;28;20405;-72
2021/03/08 09:17:15;;;;;;;8.10;5.27;;;7.50;1.00;;;;;;5074907;28;20409;-72
2021/03/08 09:19:43;;;;;;;12.53;6.67;;;7.50;1.00;;;;;;5074549;28;20740;-71
2021/03/08 09:22:26;;;;;;;10.23;6.10;;;7.60;1.00;;;;;;5075835;28;20382;-77
2021/03/08 09:25:08;;;;;;;12.30;7.00;;;7.50;1.00;;;;;;5074107;28;20453;-77
2021/03/08 09:27:42;;;;;;;12.07;6.47;;;7.70;1.00;;;;;;5071211;28;20401;-77
2021/03/08 09:30:10;;;;;;;15.83;6.90;;;7.80;1.00;;;;;;5080860;28;20431;-77
2021/03/08 09:32:45;;;;;;;16.03;7.23;;;7.80;1.00;;;;;;5094963;28;20961;-77
2021/03/08 09:35:11;;;;;;;13.87;7.03;;;7.90;1.00;;;;;;5076180;28;20445;-77
2021/03/08 09:37:39;;;;;;;14.70;7.47;;;8.00;1.00;;;;;;5061186;28;20521;-77
2021/03/08 09:40:06;;;;;;;17.23;7.60;;;8.00;1.00;;;;;;5074063;28;20418;-77
2021/03/08 09:42:39;;;;;;;15.30;7.37;;;8.20;1.00;;;;;;5053256;28;20402;-77
2021/03/08 09:45:22;;;;;;;19.57;8.40;;;8.30;1.00;;;;;;5054564;28;20442;-77
2021/03/08 09:47:49;;;;;;;16.13;9.00;;;8.50;1.00;;;;;;5054831;28;20691;-77
2021/03/08 09:50:18;;;;;;;17.33;8.60;;;8.70;1.00;;;;;;5054354;28;20432;-77
2021/03/08 09:52:46;;;;;;;17.53;8.90;;;8.80;1.00;;;;;;5054571;28;20951;-71
2021/03/08 09:55:20;;;;;;;14.50;8.20;;;8.80;1.00;;;;;;5072727;28;20409;-72
2021/03/08 09:57:46;;;;;;;14.70;8.03;;;8.80;1.00;;;;;;5072839;28;20818;-72
2021/03/08 10:00:23;;;;;;;17.00;7.97;;;8.90;1.00;;;;;;5074087;28;20480;-72
2021/03/08 10:03:03;;;;;;;12.00;7.20;;;9.00;1.00;;;;;;5074126;28;20170;-71
2021/03/08 10:05:46;;;;;;;21.83;7.90;;;8.90;1.00;;;;;;5073963;28;20433;-71
2021/03/08 10:08:20;;;;;;;21.20;8.60;;;8.90;1.00;;;;;;5073153;28;20517;-77
2021/03/08 10:10:50;;;;;;;15.60;7.77;;;9.00;1.00;;;;;;5064783;28;20499;-77
2021/03/08 10:13:17;;;;;;;14.67;7.77;;;9.00;1.00;;;;;;5054052;28;20417;-77
2021/03/08 10:15:53;;;;;;;21.03;7.90;;;8.90;1.00;;;;;;5055679;28;20425;-77
2021/03/08 10:18:30;;;;;;;19.73;8.47;;;8.80;1.00;;;;;;5073968;28;20403;-77
2021/03/08 10:21:02;;;;;;;15.80;8.87;;;8.80;1.00;;;;;;5072904;28;20413;-77
2021/03/08 10:23:29;;;;;;;21.93;8.37;;;8.80;1.00;;;;;;5053861;28;20418;-72
2021/03/08 10:26:10;;;;;;;19.93;8.63;;;8.70;1.00;;;;;;5053446;28;20438;-72
2021/03/08 10:28:46;;;;;;;21.43;9.50;;;8.80;1.00;;;;;;5055600;28;20394;-72
2021/03/08 10:31:23;;;;;;;15.57;7.90;;;8.90;1.00;;;;;;5093853;28;20397;-72
2021/03/08 10:33:54;;;;;;;14.10;7.90;;;9.00;1.00;;;;;;5060061;28;20466;-72
2021/03/08 10:36:26;;;;;;;27.13;10.40;;;8.70;1.00;;;;;;5071048;28;20449;-72
2021/03/08 10:38:54;;;;;;;16.60;8.40;;;9.00;1.00;;;;;;5092827;28;20499;-71
2021/03/08 10:41:21;;;;;;;18.20;9.40;;;9.10;1.00;;;;;;5087533;28;20401;-71
2021/03/08 10:43:47;;;;;;;19.90;9.27;;;9.10;1.00;;;;;;5066812;28;20430;-72
2021/03/08 10:46:13;;;;;;;17.53;7.90;;;;;;;;;;5067715;28;20453;-71
2021/03/08 10:49:00;;;;;;;19.03;9.10;;;9.40;1.00;;;;;;5067666;28;20776;-72
2021/03/08 10:51:27;;;;;;;16.20;8.03;;;9.20;1.00;;;;;;5088801;28;20440;-71
2021/03/08 10:54:00;;;;;;;17.80;9.37;;;9.50;1.00;;;;;;5073396;28;20811;-77
2021/03/08 10:56:26;;;;;;;19.50;9.90;;;9.60;1.00;;;;;;5073027;28;20432;-77
2021/03/08 10:58:53;;;;;;;23.93;8.57;;;9.60;1.00;;;;;;5081671;28;20413;-77
2021/03/08 11:01:20;;;;;;;16.80;7.87;;;9.60;1.00;;;;;;5071400;28;20908;-77
2021/03/08 11:03:46;;;;;;;18.60;9.03;;;9.40;1.00;;;;;;5073203;28;20396;-77
2021/03/08 11:06:16;;;;;;;20.10;8.73;;;9.50;1.00;;;;;;5060879;28;20450;-77
2021/03/08 11:09:01;;;;;;;18.27;8.90;;;9.60;1.00;;;;;;5072904;28;20454;-71
2021/03/08 11:11:29;;;;;;;22.07;8.30;;;9.50;1.00;;;;;;5065410;28;20464;-71
2021/03/08 11:14:05;;;;;;;20.53;8.60;;;9.50;1.00;;;;;;5068029;28;20962;-72
2021/03/08 11:16:33;;;;;;;19.10;8.80;;;9.70;1.00;;;;;;5072778;28;20409;-72
2021/03/08 11:19:22;;;;;;;18.43;8.83;;;9.80;1.00;;;;;;5072746;28;20394;-71
2021/03/08 11:22:17;;;;;;;23.80;8.60;;;10.00;1.00;;;;;;5064575;28;20410;-72
2021/03/08 11:24:51;;;;;;;15.60;8.80;;;9.90;1.00;;;;;;5043664;28;20457;-71
2021/03/08 11:27:28;;;;;;;19.20;9.00;;;10.00;1.00;;;;;;5052769;28;20447;-72
2021/03/08 11:30:11;;;;;;;16.83;8.17;;;10.00;1.00;;;;;;5053545;28;20389;-72
2021/03/08 11:32:40;;;;;;;27.47;8.83;;;10.20;1.00;;;;;;5072677;28;20497;-72
2021/03/08 11:35:15;;;;;;;19.20;8.70;;;10.30;1.00;;;;;;5087988;28;20444;-72
2021/03/08 11:37:47;;;;;;;20.87;9.80;;;10.50;1.00;;;;;;5075440;28;20422;-73
2021/03/08 11:40:16;;;;;;;18.97;9.00;;;10.40;1.00;;;;;;5065687;28;20417;-72
2021/03/08 11:42:41;;;;;;;24.67;9.13;;;10.60;1.00;;;;;;5072427;28;20412;-72
2021/03/08 11:45:08;;;;;;;18.63;8.80;;;10.80;1.00;;;;;;5072367;28;20804;-72
2021/03/08 11:47:34;;;;;;;20.73;8.20;;;10.80;1.00;;;;;;5072112;28;20186;-72
2021/03/08 11:50:00;;;;;;;27.40;8.60;;;10.70;1.00;;;;;;5070357;28;20444;-72
2021/03/08 11:52:26;;;;;;;14.17;7.20;;;10.30;1.00;;;;;;5058501;28;20410;-72
2021/03/08 11:54:52;;;;;;;19.40;9.20;;;;;;;;;;5072761;28;20554;-83
2021/03/08 11:57:18;;;;;;;15.07;7.90;;;10.60;1.00;;;;;;5074788;28;20163;-82
2021/03/08 11:59:45;;;;;;;23.93;8.50;;;10.60;1.00;;;;;;5076348;28;20401;-81
2021/03/08 12:02:10;;;;;;;18.40;8.93;;;10.70;1.00;;;;;;5076609;28;20166;-81
2021/03/08 12:04:40;;;;;;;17.80;8.70;;;10.80;1.00;;;;;;5075572;28;20429;-77
2021/03/08 12:07:06;;;;;;;15.53;8.00;;;10.90;1.00;;;;;;5076209;28;20494;-77
2021/03/08 12:09:33;;;;;;;16.23;8.17;;;;;;;;;;5076491;28;20496;-72
2021/03/08 12:11:59;;;;;;;20.17;8.53;;;10.70;1.00;;;;;;5071146;28;20178;-72
2021/03/08 12:14:25;;;;;;;17.17;8.33;;;10.70;1.00;;;;;;5055409;28;20426;-72
2021/03/08 12:16:51;;;;;;;27.93;9.57;;;11.00;1.00;;;;;;5067384;28;20470;-72
2021/03/08 12:19:17;;;;;;;20.70;9.33;;;10.80;1.00;;;;;;5075835;28;20939;-72
2021/03/08 12:21:46;;;;;;;13.77;7.27;;;11.10;1.00;;;;;;5076043;28;20450;-72
2021/03/08 12:24:13;;;;;;;17.10;8.30;;;11.10;1.00;;;;;;5076317;28;20152;-77
2021/03/08 12:26:38;;;;;;;16.33;8.20;;;10.60;1.00;;;;;;5075806;28;20444;-77
2021/03/08 12:29:04;;;;;;;14.87;7.80;;;;;;;;;;5075869;28;20779;-77
2021/03/08 12:31:30;;;;;;;22.93;7.50;;;10.30;1.00;;;;;;5064817;28;20183;-77
2021/03/08 12:33:56;;;;;;;17.27;7.60;;;10.40;1.00;;;;;;5073729;28;20512;-77
2021/03/08 12:36:28;;;;;;;18.80;7.57;;;10.60;1.00;;;;;;5065283;28;20205;-76
2021/03/08 12:38:55;;;;;;;17.57;8.17;;;;;;;;;;5077092;28;20228;-72
2021/03/08 12:41:20;;;;;;;18.70;8.00;;;10.60;1.00;;;;;;5076205;28;20406;-71
2021/03/08 12:43:46;;;;;;;17.10;7.63;;;10.50;1.00;;;;;;5076175;28;20892;-72
2021/03/08 12:46:12;;;;;;;18.30;7.67;;;10.50;1.00;;;;;;5073772;28;20207;-72
2021/03/08 12:48:38;;;;;;;21.13;7.57;;;;;;;;;;5069641;28;20216;-71
2021/03/08 12:51:03;;;;;;;15.63;7.73;;;10.70;1.00;;;;;;5076202;28;20631;-71
2021/03/08 12:53:34;;;;;;;18.27;8.10;;;10.80;1.00;;;;;;5076059;28;20428;-72
2021/03/08 12:56:04;;;;;;;23.03;7.10;;;10.80;1.00;;;;;;5076684;28;20621;-77
2021/03/08 12:58:30;;;;;;;19.20;7.73;;;;;;;;;;5076306;28;20436;-76
2021/03/08 13:00:58;;;;;;;16.70;8.77;;;11.00;1.00;;;;;;5064491;28;20422;-77
2021/03/08 13:03:25;;;;;;;15.20;7.80;;;;;;;;;;5057655;28;20462;-77
2021/03/08 13:05:51;;;;;;;17.00;8.07;;;10.90;1.00;;;;;;5071326;28;20455;-76
2021/03/08 13:08:17;;;;;;;18.00;9.07;;;10.90;1.00;;;;;;5073734;28;20805;-76
2021/03/08 13:10:43;;;;;;;18.67;8.30;;;;;;;;;;5073274;28;20421;-72
2021/03/08 13:13:10;;;;;;;15.93;7.67;;;11.00;1.00;;;;;;5070106;28;20232;-71
2021/03/08 13:15:36;;;;;;;17.70;8.07;;;10.90;1.00;;;;;;5073447;28;20491;-72
2021/03/08 13:18:02;;;;;;;20.40;8.10;;;11.00;1.00;;;;;;5073816;28;20878;-72
2021/03/08 13:20:27;;;;;;;16.53;8.00;;;11.00;1.00;;;;;;5074489;28;20167;-72
2021/03/08 13:22:53;;;;;;;23.23;8.40;;;;;;;;;;5074871;28;20167;-72
2021/03/08 13:25:19;;;;;;;14.97;7.27;;;;;;;;;;5073908;28;20498;-77
2021/03/08 13:27:45;;;;;;;19.70;8.30;;;;;;;;;;5074893;28;20730;-77
2021/03/08 13:30:13;;;;;;;17.00;7.50;;;10.90;1.00;;;;;;5074784;28;20389;-77